Morgantown Municipal Walter L. Bill Hart Field
KMGW : now visible

Airfield :











YOU CAN JOIN US ON...

 
LOGIN :

Register | Disclaimer

   EN    FR    IT 

 









Legend :    VFR   Marginal VFR   IFR   Intensive IFR   Very Intensive IFR
Visi :
Ceiling :
>= 8 km
>= 3000ft
5 to 8 km
1000 to 3000 ft
1500m to 5 km
500 to 1000 ft
800 to 1500m
200 to 500 ft
< 800m
< 200 ft
Symbols :   Thunderstorms  Fog  Heavy snow  Heavy precipitations  Wind > 20 kt






- Airport Elevation : 1248 ft
- IATA code : MGW


KMGW - Morgantown Municipal Walter L. Bill Hart Field

CURRENT METAR :
  • 201553Z 25004KT 10SM CLR 26/14 A3005 RMK AO2 SLP166 T02610144

EXPIRED METARs :
  • 201453Z 16005KT 10SM CLR 24/16 A3006 RMK AO2 SLP172 T02440161 50001
  • 201353Z 15003KT 10SM CLR 22/16 A3006 RMK AO2 SLP171 T02220156
  • 201253Z 00000KT 10SM CLR 21/16 A3007 RMK AO2 SLP173 T02110161
  • 201153Z 00000KT 10SM CLR 17/14 A3006 RMK AO2 SLP171 T01720144 10178 20139 51025

TAF KMGW
Valid from the 20 at 12:00 until the 21 at 12:00 UTC


201120Z 2012/2112 VRB03KT P6SM FEW250
KZOB FIR / North America



MET'MAP, your aeronautical weather chart ! - Copyright ORBIFLY December 2007 - Disclaimer

ORBIFLY MET'MAP TEAM :

Programming & Development : Alexandra Zaïnal
Original concept : Baudouin d'Aumeries
Technical & hardware support : Manuel Goepfert
Assistance : Marc-Olivier Méhu




SOURCES & CREDITS :

   NOAA       Earth
Advisory